sensor_id;sensor_type;location;lat;lon;timestamp;pressure;altitude;pressure_sealevel;temperature;humidity
64698;BME280;51124;53.394;-6.294;2024-01-07T00:00:01;101963.11;;;14.27;10.84
64698;BME280;51124;53.394;-6.294;2024-01-07T00:02:28;101961.04;;;15.05;10.72
64698;BME280;51124;53.394;-6.294;2024-01-07T00:04:56;101960.88;;;14.52;10.51
64698;BME280;51124;53.394;-6.294;2024-01-07T00:07:23;101961.68;;;14.27;10.68
64698;BME280;51124;53.394;-6.294;2024-01-07T00:09:50;101959.77;;;14.30;10.77
64698;BME280;51124;53.394;-6.294;2024-01-07T00:12:18;101960.36;;;15.05;10.64
64698;BME280;51124;53.394;-6.294;2024-01-07T00:14:46;101965.34;;;14.31;10.67
64698;BME280;51124;53.394;-6.294;2024-01-07T00:17:13;101970.75;;;14.31;10.68
64698;BME280;51124;53.394;-6.294;2024-01-07T00:19:41;101975.76;;;14.29;10.62
64698;BME280;51124;53.394;-6.294;2024-01-07T00:22:10;101980.69;;;14.51;10.58
64698;BME280;51124;53.394;-6.294;2024-01-07T00:24:38;101978.09;;;14.09;10.69
64698;BME280;51124;53.394;-6.294;2024-01-07T00:27:06;101982.67;;;14.73;10.65
64698;BME280;51124;53.394;-6.294;2024-01-07T00:29:34;101983.73;;;15.15;10.72
64698;BME280;51124;53.394;-6.294;2024-01-07T00:32:02;101979.69;;;13.97;10.80
64698;BME280;51124;53.394;-6.294;2024-01-07T00:34:30;101981.91;;;13.95;10.68
64698;BME280;51124;53.394;-6.294;2024-01-07T00:36:57;101987.65;;;14.98;10.62
64698;BME280;51124;53.394;-6.294;2024-01-07T00:39:26;101991.62;;;14.49;10.74
64698;BME280;51124;53.394;-6.294;2024-01-07T00:41:53;101991.59;;;14.18;10.63
64698;BME280;51124;53.394;-6.294;2024-01-07T00:44:21;101994.30;;;14.34;10.64
64698;BME280;51124;53.394;-6.294;2024-01-07T00:46:48;101995.68;;;15.09;10.48
64698;BME280;51124;53.394;-6.294;2024-01-07T00:49:15;101988.77;;;14.76;10.42
64698;BME280;51124;53.394;-6.294;2024-01-07T00:51:43;101992.15;;;15.83;10.66
64698;BME280;51124;53.394;-6.294;2024-01-07T00:54:11;101988.65;;;14.75;10.82
64698;BME280;51124;53.394;-6.294;2024-01-07T00:56:39;101993.37;;;14.99;10.71
64698;BME280;51124;53.394;-6.294;2024-01-07T00:59:07;101992.67;;;14.89;10.65
64698;BME280;51124;53.394;-6.294;2024-01-07T01:01:35;101997.78;;;14.01;10.79
64698;BME280;51124;53.394;-6.294;2024-01-07T01:04:03;102003.29;;;15.60;10.59
64698;BME280;51124;53.394;-6.294;2024-01-07T01:06:31;101998.95;;;14.72;10.71
64698;BME280;51124;53.394;-6.294;2024-01-07T01:08:58;102001.80;;;15.86;10.58
64698;BME280;51124;53.394;-6.294;2024-01-07T01:11:26;102002.77;;;13.67;10.84
64698;BME280;51124;53.394;-6.294;2024-01-07T01:13:54;102003.56;;;15.00;10.67
64698;BME280;51124;53.394;-6.294;2024-01-07T01:16:23;102003.31;;;15.30;10.61
64698;BME280;51124;53.394;-6.294;2024-01-07T01:18:51;102005.59;;;14.53;10.77
64698;BME280;51124;53.394;-6.294;2024-01-07T01:21:21;102010.47;;;14.90;10.57
64698;BME280;51124;53.394;-6.294;2024-01-07T01:23:51;102010.24;;;17.12;10.92
64698;BME280;51124;53.394;-6.294;2024-01-07T01:26:19;102009.56;;;16.54;11.34
64698;BME280;51124;53.394;-6.294;2024-01-07T01:28:47;102018.96;;;16.89;11.50
64698;BME280;51124;53.394;-6.294;2024-01-07T01:31:16;102022.06;;;15.63;11.82
64698;BME280;51124;53.394;-6.294;2024-01-07T01:33:45;102025.22;;;15.26;11.75
64698;BME280;51124;53.394;-6.294;2024-01-07T01:36:13;102023.40;;;15.88;11.76
64698;BME280;51124;53.394;-6.294;2024-01-07T01:38:41;102026.23;;;17.11;12.07
64698;BME280;51124;53.394;-6.294;2024-01-07T01:41:09;102024.99;;;17.13;12.22
64698;BME280;51124;53.394;-6.294;2024-01-07T01:43:37;102024.42;;;16.24;12.37
64698;BME280;51124;53.394;-6.294;2024-01-07T01:46:05;102021.30;;;17.18;12.53
64698;BME280;51124;53.394;-6.294;2024-01-07T01:48:33;102021.64;;;17.50;12.59
64698;BME280;51124;53.394;-6.294;2024-01-07T01:51:01;102024.15;;;16.52;12.60
64698;BME280;51124;53.394;-6.294;2024-01-07T01:53:29;102022.46;;;16.26;12.76
64698;BME280;51124;53.394;-6.294;2024-01-07T01:55:59;102021.13;;;16.81;12.70
64698;BME280;51124;53.394;-6.294;2024-01-07T01:58:29;102020.60;;;16.54;12.82
64698;BME280;51124;53.394;-6.294;2024-01-07T02:00:57;102023.71;;;17.09;12.77
64698;BME280;51124;53.394;-6.294;2024-01-07T02:03:26;102025.56;;;17.28;12.71
64698;BME280;51124;53.394;-6.294;2024-01-07T02:05:55;102030.37;;;16.90;12.77
64698;BME280;51124;53.394;-6.294;2024-01-07T02:08:25;102032.27;;;16.82;12.87
64698;BME280;51124;53.394;-6.294;2024-01-07T02:10:54;102034.99;;;16.38;12.95
64698;BME280;51124;53.394;-6.294;2024-01-07T02:13:21;102038.21;;;16.94;12.83
64698;BME280;51124;53.394;-6.294;2024-01-07T02:15:49;102039.75;;;16.48;12.73
64698;BME280;51124;53.394;-6.294;2024-01-07T02:18:18;102046.43;;;16.33;12.75
64698;BME280;51124;53.394;-6.294;2024-01-07T02:20:47;102051.50;;;16.56;13.00
64698;BME280;51124;53.394;-6.294;2024-01-07T02:23:15;102054.40;;;17.28;12.76
64698;BME280;51124;53.394;-6.294;2024-01-07T02:25:43;102054.87;;;16.83;12.77
64698;BME280;51124;53.394;-6.294;2024-01-07T02:28:11;102055.78;;;15.68;12.85
64698;BME280;51124;53.394;-6.294;2024-01-07T02:30:39;102047.45;;;15.59;12.53
64698;BME280;51124;53.394;-6.294;2024-01-07T02:33:07;102053.19;;;14.34;12.43
64698;BME280;51124;53.394;-6.294;2024-01-07T02:35:35;102052.43;;;15.00;12.00
64698;BME280;51124;53.394;-6.294;2024-01-07T02:38:02;102054.06;;;14.96;11.90
64698;BME280;51124;53.394;-6.294;2024-01-07T02:40:31;102054.06;;;15.03;11.63
64698;BME280;51124;53.394;-6.294;2024-01-07T02:42:59;102054.86;;;15.07;11.76
64698;BME280;51124;53.394;-6.294;2024-01-07T02:45:27;102057.70;;;13.50;11.64
64698;BME280;51124;53.394;-6.294;2024-01-07T02:47:56;102058.75;;;14.10;11.28
64698;BME280;51124;53.394;-6.294;2024-01-07T02:50:23;102063.91;;;15.52;11.14
64698;BME280;51124;53.394;-6.294;2024-01-07T02:52:51;102066.08;;;14.84;10.99
64698;BME280;51124;53.394;-6.294;2024-01-07T02:55:19;102068.89;;;15.07;11.02
64698;BME280;51124;53.394;-6.294;2024-01-07T02:57:47;102064.18;;;13.82;11.05
64698;BME280;51124;53.394;-6.294;2024-01-07T03:00:16;102067.82;;;15.11;10.99
64698;BME280;51124;53.394;-6.294;2024-01-07T03:02:44;102071.31;;;14.33;11.09
64698;BME280;51124;53.394;-6.294;2024-01-07T03:05:11;102070.22;;;14.74;10.94
64698;BME280;51124;53.394;-6.294;2024-01-07T03:07:39;102071.62;;;15.64;10.81
64698;BME280;51124;53.394;-6.294;2024-01-07T03:10:09;102070.54;;;14.54;10.94
64698;BME280;51124;53.394;-6.294;2024-01-07T03:12:38;102065.58;;;13.65;10.80
64698;BME280;51124;53.394;-6.294;2024-01-07T03:15:06;102069.21;;;14.60;10.68
64698;BME280;51124;53.394;-6.294;2024-01-07T03:17:33;102066.90;;;14.71;10.56
64698;BME280;51124;53.394;-6.294;2024-01-07T03:20:01;102068.17;;;14.17;10.55
64698;BME280;51124;53.394;-6.294;2024-01-07T03:22:29;102068.31;;;14.47;10.63
64698;BME280;51124;53.394;-6.294;2024-01-07T03:24:57;102072.28;;;14.34;10.65
64698;BME280;51124;53.394;-6.294;2024-01-07T03:27:26;102072.06;;;14.50;10.67
64698;BME280;51124;53.394;-6.294;2024-01-07T03:29:55;102076.75;;;14.73;10.64
64698;BME280;51124;53.394;-6.294;2024-01-07T03:32:23;102076.91;;;14.20;10.53
64698;BME280;51124;53.394;-6.294;2024-01-07T03:34:51;102077.40;;;14.04;10.56
64698;BME280;51124;53.394;-6.294;2024-01-07T03:37:19;102076.55;;;14.00;10.55
64698;BME280;51124;53.394;-6.294;2024-01-07T03:39:48;102080.08;;;14.25;10.50
64698;BME280;51124;53.394;-6.294;2024-01-07T03:42:16;102082.18;;;14.76;10.55
64698;BME280;51124;53.394;-6.294;2024-01-07T03:44:44;102081.55;;;15.05;10.63
64698;BME280;51124;53.394;-6.294;2024-01-07T03:47:11;102082.93;;;14.90;10.67
64698;BME280;51124;53.394;-6.294;2024-01-07T03:49:39;102090.18;;;15.13;10.45
64698;BME280;51124;53.394;-6.294;2024-01-07T03:52:09;102091.22;;;14.17;10.53
64698;BME280;51124;53.394;-6.294;2024-01-07T03:54:37;102096.33;;;14.97;10.37
64698;BME280;51124;53.394;-6.294;2024-01-07T03:57:04;102096.79;;;13.88;10.48
64698;BME280;51124;53.394;-6.294;2024-01-07T03:59:31;102095.07;;;14.09;10.38
64698;BME280;51124;53.394;-6.294;2024-01-07T04:01:59;102098.21;;;14.03;10.47
64698;BME280;51124;53.394;-6.294;2024-01-07T04:04:27;102096.92;;;14.89;10.39
64698;BME280;51124;53.394;-6.294;2024-01-07T04:06:54;102101.76;;;13.84;10.43
64698;BME280;51124;53.394;-6.294;2024-01-07T04:09:21;102100.65;;;14.31;10.35
64698;BME280;51124;53.394;-6.294;2024-01-07T04:11:49;102106.91;;;14.73;10.55
64698;BME280;51124;53.394;-6.294;2024-01-07T04:14:17;102104.63;;;14.47;10.49
64698;BME280;51124;53.394;-6.294;2024-01-07T04:16:44;102104.87;;;13.96;10.52
64698;BME280;51124;53.394;-6.294;2024-01-07T04:19:12;102106.18;;;14.95;10.65
64698;BME280;51124;53.394;-6.294;2024-01-07T04:21:39;102109.21;;;13.27;10.66
64698;BME280;51124;53.394;-6.294;2024-01-07T04:24:07;102114.30;;;14.46;10.33
64698;BME280;51124;53.394;-6.294;2024-01-07T04:26:34;102116.04;;;14.16;10.57
64698;BME280;51124;53.394;-6.294;2024-01-07T04:29:02;102115.96;;;14.71;10.60
64698;BME280;51124;53.394;-6.294;2024-01-07T04:31:29;102115.39;;;14.20;10.43
64698;BME280;51124;53.394;-6.294;2024-01-07T04:33:57;102117.03;;;14.19;10.40
64698;BME280;51124;53.394;-6.294;2024-01-07T04:36:24;102125.18;;;13.28;10.44
64698;BME280;51124;53.394;-6.294;2024-01-07T04:38:52;102124.90;;;14.28;10.36
64698;BME280;51124;53.394;-6.294;2024-01-07T04:41:19;102126.93;;;15.54;10.33
64698;BME280;51124;53.394;-6.294;2024-01-07T04:43:47;102133.13;;;16.83;10.83
64698;BME280;51124;53.394;-6.294;2024-01-07T04:46:14;102136.12;;;16.20;11.21
64698;BME280;51124;53.394;-6.294;2024-01-07T04:48:42;102131.98;;;14.54;11.41
64698;BME280;51124;53.394;-6.294;2024-01-07T04:51:09;102136.65;;;13.84;11.29
64698;BME280;51124;53.394;-6.294;2024-01-07T04:53:37;102135.76;;;16.86;11.60
64698;BME280;51124;53.394;-6.294;2024-01-07T04:56:06;102141.53;;;17.07;12.05
64698;BME280;51124;53.394;-6.294;2024-01-07T04:58:34;102139.71;;;17.41;12.20
64698;BME280;51124;53.394;-6.294;2024-01-07T05:01:01;102140.01;;;16.61;12.52
64698;BME280;51124;53.394;-6.294;2024-01-07T05:03:29;102140.08;;;16.20;12.54
64698;BME280;51124;53.394;-6.294;2024-01-07T05:05:56;102140.84;;;16.83;12.49
64698;BME280;51124;53.394;-6.294;2024-01-07T05:08:24;102143.38;;;16.64;12.71
64698;BME280;51124;53.394;-6.294;2024-01-07T05:10:51;102144.15;;;16.30;12.76
64698;BME280;51124;53.394;-6.294;2024-01-07T05:13:19;102148.35;;;16.14;12.93
64698;BME280;51124;53.394;-6.294;2024-01-07T05:15:46;102148.63;;;16.33;12.79
64698;BME280;51124;53.394;-6.294;2024-01-07T05:18:14;102147.77;;;16.38;12.84
64698;BME280;51124;53.394;-6.294;2024-01-07T05:20:42;102152.15;;;16.79;12.59
64698;BME280;51124;53.394;-6.294;2024-01-07T05:23:10;102151.87;;;15.69;12.87
64698;BME280;51124;53.394;-6.294;2024-01-07T05:25:37;102151.26;;;15.82;12.88
64698;BME280;51124;53.394;-6.294;2024-01-07T05:28:05;102152.57;;;16.41;12.82
64698;BME280;51124;53.394;-6.294;2024-01-07T05:30:33;102159.04;;;16.32;12.96
64698;BME280;51124;53.394;-6.294;2024-01-07T05:33:00;102164.64;;;15.93;12.84
64698;BME280;51124;53.394;-6.294;2024-01-07T05:35:28;102167.94;;;15.93;12.96
64698;BME280;51124;53.394;-6.294;2024-01-07T05:37:55;102164.55;;;16.01;12.91
64698;BME280;51124;53.394;-6.294;2024-01-07T05:40:23;102167.44;;;17.44;12.82
64698;BME280;51124;53.394;-6.294;2024-01-07T05:42:51;102170.19;;;15.03;12.95
64698;BME280;51124;53.394;-6.294;2024-01-07T05:45:18;102173.22;;;14.77;12.68
64698;BME280;51124;53.394;-6.294;2024-01-07T05:47:46;102178.92;;;14.33;12.26
64698;BME280;51124;53.394;-6.294;2024-01-07T05:50:13;102176.71;;;14.07;12.13
64698;BME280;51124;53.394;-6.294;2024-01-07T05:52:41;102180.27;;;14.27;11.82
64698;BME280;51124;53.394;-6.294;2024-01-07T05:55:10;102180.37;;;15.03;11.60
64698;BME280;51124;53.394;-6.294;2024-01-07T05:57:37;102179.63;;;13.60;11.58
64698;BME280;51124;53.394;-6.294;2024-01-07T06:00:06;102178.51;;;14.46;11.30
64698;BME280;51124;53.394;-6.294;2024-01-07T06:02:36;102176.59;;;14.32;11.24
64698;BME280;51124;53.394;-6.294;2024-01-07T06:05:04;102181.87;;;14.60;10.93
64698;BME280;51124;53.394;-6.294;2024-01-07T06:07:32;102182.07;;;14.32;11.07
64698;BME280;51124;53.394;-6.294;2024-01-07T06:10:00;102185.40;;;13.45;10.98
64698;BME280;51124;53.394;-6.294;2024-01-07T06:12:27;102192.06;;;14.79;10.88
64698;BME280;51124;53.394;-6.294;2024-01-07T06:14:55;102195.09;;;13.66;10.87
64698;BME280;51124;53.394;-6.294;2024-01-07T06:17:22;102198.19;;;13.47;10.87
64698;BME280;51124;53.394;-6.294;2024-01-07T06:19:50;102202.80;;;14.11;10.84
64698;BME280;51124;53.394;-6.294;2024-01-07T06:22:17;102200.87;;;13.74;10.64
64698;BME280;51124;53.394;-6.294;2024-01-07T06:24:45;102208.04;;;13.76;10.77
64698;BME280;51124;53.394;-6.294;2024-01-07T06:27:12;102201.85;;;14.78;10.55
64698;BME280;51124;53.394;-6.294;2024-01-07T06:29:40;102202.19;;;13.97;10.64
64698;BME280;51124;53.394;-6.294;2024-01-07T06:32:07;102202.57;;;13.91;10.44
64698;BME280;51124;53.394;-6.294;2024-01-07T06:34:35;102206.70;;;13.21;10.73
64698;BME280;51124;53.394;-6.294;2024-01-07T06:37:02;102208.24;;;14.01;10.62
64698;BME280;51124;53.394;-6.294;2024-01-07T06:39:30;102213.71;;;13.06;10.73
64698;BME280;51124;53.394;-6.294;2024-01-07T06:41:57;102214.07;;;13.00;10.71
64698;BME280;51124;53.394;-6.294;2024-01-07T06:44:24;102212.73;;;13.40;10.61
64698;BME280;51124;53.394;-6.294;2024-01-07T06:46:52;102216.67;;;13.21;10.64
64698;BME280;51124;53.394;-6.294;2024-01-07T06:49:19;102218.72;;;13.03;10.68
64698;BME280;51124;53.394;-6.294;2024-01-07T06:51:47;102224.50;;;13.57;10.69
64698;BME280;51124;53.394;-6.294;2024-01-07T06:54:14;102224.38;;;14.11;10.67
64698;BME280;51124;53.394;-6.294;2024-01-07T06:56:41;102230.32;;;14.42;10.65
64698;BME280;51124;53.394;-6.294;2024-01-07T06:59:09;102232.39;;;13.50;10.65
64698;BME280;51124;53.394;-6.294;2024-01-07T07:01:36;102236.65;;;12.85;10.69
64698;BME280;51124;53.394;-6.294;2024-01-07T07:04:03;102238.46;;;13.17;10.66
64698;BME280;51124;53.394;-6.294;2024-01-07T07:06:31;102240.87;;;13.85;10.49
64698;BME280;51124;53.394;-6.294;2024-01-07T07:08:58;102241.52;;;14.16;10.57
64698;BME280;51124;53.394;-6.294;2024-01-07T07:11:26;102241.58;;;13.15;10.64
64698;BME280;51124;53.394;-6.294;2024-01-07T07:13:53;102248.59;;;13.74;10.66
64698;BME280;51124;53.394;-6.294;2024-01-07T07:16:21;102252.63;;;13.00;10.67
64698;BME280;51124;53.394;-6.294;2024-01-07T07:18:49;102255.79;;;14.12;10.50
64698;BME280;51124;53.394;-6.294;2024-01-07T07:21:16;102263.51;;;13.59;10.80
64698;BME280;51124;53.394;-6.294;2024-01-07T07:23:43;102265.06;;;14.62;10.73
64698;BME280;51124;53.394;-6.294;2024-01-07T07:26:11;102269.39;;;13.62;10.56
64698;BME280;51124;53.394;-6.294;2024-01-07T07:28:38;102271.52;;;14.14;10.56
64698;BME280;51124;53.394;-6.294;2024-01-07T07:31:06;102279.63;;;13.37;10.74
64698;BME280;51124;53.394;-6.294;2024-01-07T07:33:33;102289.97;;;14.47;10.74
64698;BME280;51124;53.394;-6.294;2024-01-07T07:36:01;102281.10;;;14.43;10.63
64698;BME280;51124;53.394;-6.294;2024-01-07T07:38:28;102286.97;;;13.04;10.76
64698;BME280;51124;53.394;-6.294;2024-01-07T07:40:56;102284.10;;;13.38;10.65
64698;BME280;51124;53.394;-6.294;2024-01-07T07:43:23;102288.18;;;13.84;10.54
64698;BME280;51124;53.394;-6.294;2024-01-07T07:45:50;102287.49;;;13.34;10.58
64698;BME280;51124;53.394;-6.294;2024-01-07T07:48:18;102294.23;;;12.37;10.65
64698;BME280;51124;53.394;-6.294;2024-01-07T07:50:46;102296.63;;;15.95;10.82
64698;BME280;51124;53.394;-6.294;2024-01-07T07:53:14;102303.83;;;15.93;11.35
64698;BME280;51124;53.394;-6.294;2024-01-07T07:55:42;102299.80;;;14.86;11.63
64698;BME280;51124;53.394;-6.294;2024-01-07T07:58:09;102307.29;;;13.69;11.62
64698;BME280;51124;53.394;-6.294;2024-01-07T08:00:37;102302.48;;;16.29;11.68
64698;BME280;51124;53.394;-6.294;2024-01-07T08:03:05;102307.96;;;16.27;12.12
64698;BME280;51124;53.394;-6.294;2024-01-07T08:05:33;102309.52;;;16.23;12.48
64698;BME280;51124;53.394;-6.294;2024-01-07T08:08:01;102315.93;;;15.79;12.57
64698;BME280;51124;53.394;-6.294;2024-01-07T08:10:28;102316.81;;;15.55;12.65
64698;BME280;51124;53.394;-6.294;2024-01-07T08:12:56;102320.52;;;16.04;12.71
64698;BME280;51124;53.394;-6.294;2024-01-07T08:15:24;102319.48;;;15.92;12.83
64698;BME280;51124;53.394;-6.294;2024-01-07T08:17:51;102321.40;;;15.58;13.07
64698;BME280;51124;53.394;-6.294;2024-01-07T08:20:18;102320.04;;;15.18;12.93
64698;BME280;51124;53.394;-6.294;2024-01-07T08:22:46;102323.49;;;15.16;13.17
64698;BME280;51124;53.394;-6.294;2024-01-07T08:25:14;102330.01;;;16.26;13.10
64698;BME280;51124;53.394;-6.294;2024-01-07T08:27:42;102337.76;;;16.63;12.92
64698;BME280;51124;53.394;-6.294;2024-01-07T08:30:10;102336.77;;;15.17;13.07
64698;BME280;51124;53.394;-6.294;2024-01-07T08:32:38;102338.26;;;15.18;13.06
64698;BME280;51124;53.394;-6.294;2024-01-07T08:35:06;102343.02;;;15.44;13.13
64698;BME280;51124;53.394;-6.294;2024-01-07T08:37:34;102337.88;;;15.79;13.06
64698;BME280;51124;53.394;-6.294;2024-01-07T08:40:02;102340.45;;;14.97;13.38
64698;BME280;51124;53.394;-6.294;2024-01-07T08:42:29;102340.52;;;15.07;13.10
64698;BME280;51124;53.394;-6.294;2024-01-07T08:44:57;102348.39;;;15.58;13.24
64698;BME280;51124;53.394;-6.294;2024-01-07T08:47:25;102352.28;;;15.32;13.28
64698;BME280;51124;53.394;-6.294;2024-01-07T08:49:52;102352.31;;;15.60;13.11
64698;BME280;51124;53.394;-6.294;2024-01-07T08:52:20;102354.28;;;13.36;13.03
64698;BME280;51124;53.394;-6.294;2024-01-07T08:54:48;102355.06;;;13.25;12.79
64698;BME280;51124;53.394;-6.294;2024-01-07T08:57:15;102357.37;;;13.00;12.54
64698;BME280;51124;53.394;-6.294;2024-01-07T08:59:42;102357.34;;;13.93;11.99
64698;BME280;51124;53.394;-6.294;2024-01-07T09:02:10;102362.38;;;14.10;12.00
64698;BME280;51124;53.394;-6.294;2024-01-07T09:04:37;102359.97;;;13.80;11.99
64698;BME280;51124;53.394;-6.294;2024-01-07T09:07:05;102359.75;;;13.31;12.10
64698;BME280;51124;53.394;-6.294;2024-01-07T09:09:32;102361.02;;;12.63;11.76
64698;BME280;51124;53.394;-6.294;2024-01-07T09:12:00;102358.21;;;12.55;11.70
64698;BME280;51124;53.394;-6.294;2024-01-07T09:14:27;102357.70;;;12.29;11.50
64698;BME280;51124;53.394;-6.294;2024-01-07T09:16:54;102362.17;;;12.78;11.26
64698;BME280;51124;53.394;-6.294;2024-01-07T09:19:22;102364.75;;;12.90;11.16
64698;BME280;51124;53.394;-6.294;2024-01-07T09:21:49;102366.24;;;13.42;11.02
64698;BME280;51124;53.394;-6.294;2024-01-07T09:24:16;102367.65;;;12.76;10.99
64698;BME280;51124;53.394;-6.294;2024-01-07T09:26:44;102374.38;;;12.97;10.94
64698;BME280;51124;53.394;-6.294;2024-01-07T09:29:12;102375.19;;;14.37;10.61
64698;BME280;51124;53.394;-6.294;2024-01-07T09:31:40;102371.33;;;13.03;10.62
64698;BME280;51124;53.394;-6.294;2024-01-07T09:34:07;102372.00;;;13.63;10.59
64698;BME280;51124;53.394;-6.294;2024-01-07T09:36:34;102378.52;;;13.76;10.33
64698;BME280;51124;53.394;-6.294;2024-01-07T09:39:02;102378.90;;;13.75;10.41
64698;BME280;51124;53.394;-6.294;2024-01-07T09:41:29;102376.66;;;14.96;10.10
64698;BME280;51124;53.394;-6.294;2024-01-07T09:43:57;102379.82;;;13.93;9.89
64698;BME280;51124;53.394;-6.294;2024-01-07T09:46:26;102376.20;;;14.49;9.94
64698;BME280;51124;53.394;-6.294;2024-01-07T09:48:56;102377.96;;;14.57;9.91
64698;BME280;51124;53.394;-6.294;2024-01-07T09:51:24;102378.27;;;14.90;9.96
64698;BME280;51124;53.394;-6.294;2024-01-07T09:54:00;102374.84;;;15.07;9.72
64698;BME280;51124;53.394;-6.294;2024-01-07T09:56:22;102374.23;;;14.64;9.86
64698;BME280;51124;53.394;-6.294;2024-01-07T09:58:52;102374.45;;;15.46;9.63
64698;BME280;51124;53.394;-6.294;2024-01-07T10:01:20;102375.92;;;14.63;9.65
64698;BME280;51124;53.394;-6.294;2024-01-07T10:03:47;102380.57;;;15.11;9.58
64698;BME280;51124;53.394;-6.294;2024-01-07T10:06:17;102383.87;;;15.33;9.40
64698;BME280;51124;53.394;-6.294;2024-01-07T10:08:45;102387.27;;;15.23;9.53
64698;BME280;51124;53.394;-6.294;2024-01-07T10:11:15;102389.05;;;15.50;9.49
64698;BME280;51124;53.394;-6.294;2024-01-07T10:13:44;102385.37;;;15.95;9.40
64698;BME280;51124;53.394;-6.294;2024-01-07T10:16:12;102387.32;;;15.50;9.42
64698;BME280;51124;53.394;-6.294;2024-01-07T10:18:39;102390.04;;;15.99;9.36
64698;BME280;51124;53.394;-6.294;2024-01-07T10:21:08;102385.85;;;16.09;9.36
64698;BME280;51124;53.394;-6.294;2024-01-07T10:23:35;102391.69;;;15.50;9.48
64698;BME280;51124;53.394;-6.294;2024-01-07T10:26:03;102398.10;;;16.04;9.24
64698;BME280;51124;53.394;-6.294;2024-01-07T10:28:30;102407.41;;;16.95;9.28
64698;BME280;51124;53.394;-6.294;2024-01-07T10:30:59;102414.17;;;16.90;9.07
64698;BME280;51124;53.394;-6.294;2024-01-07T10:33:30;102410.08;;;16.86;9.13
64698;BME280;51124;53.394;-6.294;2024-01-07T10:36:01;102409.02;;;16.37;9.23
64698;BME280;51124;53.394;-6.294;2024-01-07T10:38:29;102412.16;;;16.53;9.29
64698;BME280;51124;53.394;-6.294;2024-01-07T10:40:58;102411.89;;;16.37;9.22
64698;BME280;51124;53.394;-6.294;2024-01-07T10:43:28;102411.58;;;16.96;9.26
64698;BME280;51124;53.394;-6.294;2024-01-07T10:45:58;102420.78;;;16.43;9.45
64698;BME280;51124;53.394;-6.294;2024-01-07T10:48:30;102424.92;;;15.98;9.34
64698;BME280;51124;53.394;-6.294;2024-01-07T10:51:01;102419.57;;;15.70;9.36
64698;BME280;51124;53.394;-6.294;2024-01-07T10:53:32;102425.39;;;15.81;9.35
64698;BME280;51124;53.394;-6.294;2024-01-07T10:56:03;102426.46;;;16.37;9.40
64698;BME280;51124;53.394;-6.294;2024-01-07T10:58:31;102432.51;;;15.58;9.53
64698;BME280;51124;53.394;-6.294;2024-01-07T11:01:00;102431.77;;;18.84;9.53
64698;BME280;51124;53.394;-6.294;2024-01-07T11:03:35;102433.04;;;18.03;10.14
64698;BME280;51124;53.394;-6.294;2024-01-07T11:06:07;102443.08;;;17.91;10.40
64698;BME280;51124;53.394;-6.294;2024-01-07T11:08:31;102441.28;;;16.42;10.61
64698;BME280;51124;53.394;-6.294;2024-01-07T11:11:06;102443.67;;;15.67;10.58
64698;BME280;51124;53.394;-6.294;2024-01-07T11:13:35;102444.58;;;18.67;10.81
64698;BME280;51124;53.394;-6.294;2024-01-07T11:16:05;102444.50;;;18.93;11.11
64698;BME280;51124;53.394;-6.294;2024-01-07T11:18:33;102446.92;;;18.55;11.34
64698;BME280;51124;53.394;-6.294;2024-01-07T11:21:01;102449.56;;;17.56;11.55
64698;BME280;51124;53.394;-6.294;2024-01-07T11:23:29;102448.17;;;17.59;11.56
64698;BME280;51124;53.394;-6.294;2024-01-07T11:25:58;102450.70;;;17.65;11.89
64698;BME280;51124;53.394;-6.294;2024-01-07T11:28:58;102449.45;;;17.82;11.85
64698;BME280;51124;53.394;-6.294;2024-01-07T11:30:57;102447.90;;;17.43;11.93
64698;BME280;51124;53.394;-6.294;2024-01-07T11:33:34;102443.75;;;17.60;11.83
64698;BME280;51124;53.394;-6.294;2024-01-07T11:35:59;102441.84;;;17.92;11.95
64698;BME280;51124;53.394;-6.294;2024-01-07T11:38:27;102442.43;;;17.41;11.97
64698;BME280;51124;53.394;-6.294;2024-01-07T11:40:56;102439.17;;;17.31;12.10
64698;BME280;51124;53.394;-6.294;2024-01-07T11:43:23;102436.78;;;17.96;11.94
64698;BME280;51124;53.394;-6.294;2024-01-07T11:45:52;102438.13;;;17.33;12.04
64698;BME280;51124;53.394;-6.294;2024-01-07T11:48:19;102436.81;;;17.74;12.02
64698;BME280;51124;53.394;-6.294;2024-01-07T11:50:47;102441.37;;;17.44;11.97
64698;BME280;51124;53.394;-6.294;2024-01-07T11:53:14;102440.26;;;18.03;12.00
64698;BME280;51124;53.394;-6.294;2024-01-07T11:55:43;102439.64;;;17.28;12.10
64698;BME280;51124;53.394;-6.294;2024-01-07T11:58:11;102444.30;;;17.14;12.09
64698;BME280;51124;53.394;-6.294;2024-01-07T12:00:39;102448.04;;;16.76;12.19
64698;BME280;51124;53.394;-6.294;2024-01-07T12:03:06;102445.96;;;16.88;12.08
64698;BME280;51124;53.394;-6.294;2024-01-07T12:05:34;102449.63;;;16.50;11.93
64698;BME280;51124;53.394;-6.294;2024-01-07T12:08:03;102446.43;;;15.23;11.68
64698;BME280;51124;53.394;-6.294;2024-01-07T12:10:30;102443.45;;;15.52;11.19
64698;BME280;51124;53.394;-6.294;2024-01-07T12:12:58;102441.81;;;15.67;10.87
64698;BME280;51124;53.394;-6.294;2024-01-07T12:15:26;102444.27;;;15.98;10.76
64698;BME280;51124;53.394;-6.294;2024-01-07T12:18:01;102444.27;;;15.95;10.79
64698;BME280;51124;53.394;-6.294;2024-01-07T12:20:28;102451.11;;;15.24;10.64
64698;BME280;51124;53.394;-6.294;2024-01-07T12:23:04;102446.57;;;15.03;10.45
64698;BME280;51124;53.394;-6.294;2024-01-07T12:25:23;102443.88;;;15.73;10.37
64698;BME280;51124;53.394;-6.294;2024-01-07T12:27:51;102440.77;;;15.88;10.18
64698;BME280;51124;53.394;-6.294;2024-01-07T12:30:19;102433.83;;;15.32;10.12
64698;BME280;51124;53.394;-6.294;2024-01-07T12:32:47;102437.93;;;15.60;10.03
64698;BME280;51124;53.394;-6.294;2024-01-07T12:35:15;102439.81;;;15.29;9.96
64698;BME280;51124;53.394;-6.294;2024-01-07T12:37:44;102436.08;;;15.89;9.97
64698;BME280;51124;53.394;-6.294;2024-01-07T12:40:12;102432.79;;;15.11;9.93
64698;BME280;51124;53.394;-6.294;2024-01-07T12:42:40;102434.30;;;14.86;9.93